sensor_id;sensor_type;location;lat;lon;timestamp;P1;durP1;ratioP1;P2;durP2;ratioP2
42978;SDS011;28616;44.746;19.678;2022-12-13T00:00:40;352.30;;;163.82;;
42978;SDS011;28616;44.746;19.678;2022-12-13T00:03:06;288.58;;;134.32;;
42978;SDS011;28616;44.746;19.678;2022-12-13T00:05:32;237.30;;;111.20;;
42978;SDS011;28616;44.746;19.678;2022-12-13T00:07:59;266.63;;;122.65;;
42978;SDS011;28616;44.746;19.678;2022-12-13T00:10:25;246.00;;;113.47;;
42978;SDS011;28616;44.746;19.678;2022-12-13T00:12:51;237.20;;;107.90;;
42978;SDS011;28616;44.746;19.678;2022-12-13T00:15:17;205.90;;;100.60;;
42978;SDS011;28616;44.746;19.678;2022-12-13T00:17:43;216.30;;;99.60;;
42978;SDS011;28616;44.746;19.678;2022-12-13T00:20:09;213.75;;;101.68;;
42978;SDS011;28616;44.746;19.678;2022-12-13T00:22:36;226.05;;;100.78;;
42978;SDS011;28616;44.746;19.678;2022-12-13T00:25:02;230.60;;;104.90;;
42978;SDS011;28616;44.746;19.678;2022-12-13T00:27:29;257.27;;;117.50;;
42978;SDS011;28616;44.746;19.678;2022-12-13T00:29:54;295.50;;;133.13;;
42978;SDS011;28616;44.746;19.678;2022-12-13T00:32:20;250.57;;;112.85;;
42978;SDS011;28616;44.746;19.678;2022-12-13T00:34:46;246.15;;;112.82;;
42978;SDS011;28616;44.746;19.678;2022-12-13T00:37:12;268.27;;;124.57;;
42978;SDS011;28616;44.746;19.678;2022-12-13T00:39:37;246.05;;;112.72;;
42978;SDS011;28616;44.746;19.678;2022-12-13T00:42:04;230.82;;;109.28;;
42978;SDS011;28616;44.746;19.678;2022-12-13T00:44:30;275.60;;;128.43;;
42978;SDS011;28616;44.746;19.678;2022-12-13T00:46:56;290.85;;;132.65;;
42978;SDS011;28616;44.746;19.678;2022-12-13T00:49:22;305.20;;;135.98;;
42978;SDS011;28616;44.746;19.678;2022-12-13T00:51:48;291.50;;;134.48;;
42978;SDS011;28616;44.746;19.678;2022-12-13T00:54:14;324.20;;;145.10;;
42978;SDS011;28616;44.746;19.678;2022-12-13T00:56:40;671.65;;;289.67;;
42978;SDS011;28616;44.746;19.678;2022-12-13T00:59:06;634.60;;;279.50;;
42978;SDS011;28616;44.746;19.678;2022-12-13T01:01:34;388.80;;;175.82;;
42978;SDS011;28616;44.746;19.678;2022-12-13T01:04:01;397.05;;;184.88;;
42978;SDS011;28616;44.746;19.678;2022-12-13T01:09:18;447.13;;;207.75;;
42978;SDS011;28616;44.746;19.678;2022-12-13T01:11:46;402.63;;;185.70;;
42978;SDS011;28616;44.746;19.678;2022-12-13T01:14:13;432.27;;;202.18;;
42978;SDS011;28616;44.746;19.678;2022-12-13T01:16:39;383.70;;;173.82;;
42978;SDS011;28616;44.746;19.678;2022-12-13T01:19:05;415.02;;;189.57;;
42978;SDS011;28616;44.746;19.678;2022-12-13T01:21:31;416.67;;;187.85;;
42978;SDS011;28616;44.746;19.678;2022-12-13T01:24:00;452.35;;;212.90;;
42978;SDS011;28616;44.746;19.678;2022-12-13T01:26:27;422.75;;;201.15;;
42978;SDS011;28616;44.746;19.678;2022-12-13T01:28:53;425.15;;;199.40;;
42978;SDS011;28616;44.746;19.678;2022-12-13T01:31:19;446.88;;;199.82;;
42978;SDS011;28616;44.746;19.678;2022-12-13T01:33:46;459.77;;;211.77;;
42978;SDS011;28616;44.746;19.678;2022-12-13T01:36:13;445.92;;;212.20;;
42978;SDS011;28616;44.746;19.678;2022-12-13T01:38:41;466.02;;;221.68;;
42978;SDS011;28616;44.746;19.678;2022-12-13T01:41:08;454.85;;;217.65;;
42978;SDS011;28616;44.746;19.678;2022-12-13T01:46:11;420.48;;;200.15;;
42978;SDS011;28616;44.746;19.678;2022-12-13T01:48:41;377.88;;;177.95;;
42978;SDS011;28616;44.746;19.678;2022-12-13T01:51:12;387.52;;;179.38;;
42978;SDS011;28616;44.746;19.678;2022-12-13T01:53:41;384.48;;;183.02;;
42978;SDS011;28616;44.746;19.678;2022-12-13T01:56:11;362.15;;;175.07;;
42978;SDS011;28616;44.746;19.678;2022-12-13T01:58:50;365.65;;;171.52;;
42978;SDS011;28616;44.746;19.678;2022-12-13T02:01:19;334.92;;;163.27;;
42978;SDS011;28616;44.746;19.678;2022-12-13T02:03:46;331.63;;;156.98;;
42978;SDS011;28616;44.746;19.678;2022-12-13T02:08:44;303.42;;;146.27;;
42978;SDS011;28616;44.746;19.678;2022-12-13T02:11:10;300.80;;;139.02;;
42978;SDS011;28616;44.746;19.678;2022-12-13T02:13:38;281.02;;;134.10;;
42978;SDS011;28616;44.746;19.678;2022-12-13T02:22:12;248.85;;;119.53;;
42978;SDS011;28616;44.746;19.678;2022-12-13T02:35:50;209.18;;;95.03;;
42978;SDS011;28616;44.746;19.678;2022-12-13T02:46:43;202.90;;;96.57;;
42978;SDS011;28616;44.746;19.678;2022-12-13T02:49:16;258.52;;;112.50;;
42978;SDS011;28616;44.746;19.678;2022-12-13T02:51:44;246.95;;;108.32;;
42978;SDS011;28616;44.746;19.678;2022-12-13T02:54:11;260.75;;;115.90;;
42978;SDS011;28616;44.746;19.678;2022-12-13T02:56:37;264.48;;;120.45;;
42978;SDS011;28616;44.746;19.678;2022-12-13T02:59:04;222.27;;;103.25;;
42978;SDS011;28616;44.746;19.678;2022-12-13T03:01:42;213.77;;;100.50;;
42978;SDS011;28616;44.746;19.678;2022-12-13T03:07:16;207.60;;;91.80;;
42978;SDS011;28616;44.746;19.678;2022-12-13T03:18:23;198.00;;;94.70;;
42978;SDS011;28616;44.746;19.678;2022-12-13T03:20:56;251.30;;;114.65;;
42978;SDS011;28616;44.746;19.678;2022-12-13T03:23:27;211.35;;;99.07;;
42978;SDS011;28616;44.746;19.678;2022-12-13T03:26:00;210.80;;;96.88;;
42978;SDS011;28616;44.746;19.678;2022-12-13T03:28:36;181.82;;;85.50;;
42978;SDS011;28616;44.746;19.678;2022-12-13T03:31:03;194.25;;;89.75;;
42978;SDS011;28616;44.746;19.678;2022-12-13T03:33:29;190.80;;;86.78;;
42978;SDS011;28616;44.746;19.678;2022-12-13T03:35:55;175.90;;;84.22;;
42978;SDS011;28616;44.746;19.678;2022-12-13T03:38:22;195.98;;;88.57;;
42978;SDS011;28616;44.746;19.678;2022-12-13T03:40:48;183.63;;;89.60;;
42978;SDS011;28616;44.746;19.678;2022-12-13T03:43:16;199.40;;;92.35;;
42978;SDS011;28616;44.746;19.678;2022-12-13T03:45:42;209.85;;;97.85;;
42978;SDS011;28616;44.746;19.678;2022-12-13T03:48:08;263.45;;;119.60;;
42978;SDS011;28616;44.746;19.678;2022-12-13T03:50:33;244.45;;;115.20;;
42978;SDS011;28616;44.746;19.678;2022-12-13T03:53:00;290.85;;;130.70;;
42978;SDS011;28616;44.746;19.678;2022-12-13T03:55:26;320.27;;;147.65;;
42978;SDS011;28616;44.746;19.678;2022-12-13T03:57:52;302.77;;;137.90;;
42978;SDS011;28616;44.746;19.678;2022-12-13T04:00:18;299.13;;;139.23;;
42978;SDS011;28616;44.746;19.678;2022-12-13T04:02:44;252.65;;;116.75;;
42978;SDS011;28616;44.746;19.678;2022-12-13T04:05:10;384.23;;;172.75;;
42978;SDS011;28616;44.746;19.678;2022-12-13T04:07:35;227.57;;;104.18;;
42978;SDS011;28616;44.746;19.678;2022-12-13T04:10:02;180.27;;;86.60;;
42978;SDS011;28616;44.746;19.678;2022-12-13T04:12:29;130.63;;;64.47;;
42978;SDS011;28616;44.746;19.678;2022-12-13T04:15:13;123.10;;;59.53;;
42978;SDS011;28616;44.746;19.678;2022-12-13T04:17:39;130.57;;;62.10;;
42978;SDS011;28616;44.746;19.678;2022-12-13T04:20:05;127.05;;;63.30;;
42978;SDS011;28616;44.746;19.678;2022-12-13T04:22:31;111.35;;;54.60;;
42978;SDS011;28616;44.746;19.678;2022-12-13T04:24:57;98.20;;;50.13;;
42978;SDS011;28616;44.746;19.678;2022-12-13T04:27:23;102.88;;;51.40;;
42978;SDS011;28616;44.746;19.678;2022-12-13T04:29:49;114.25;;;57.35;;
42978;SDS011;28616;44.746;19.678;2022-12-13T04:32:14;117.13;;;57.90;;
42978;SDS011;28616;44.746;19.678;2022-12-13T04:34:40;116.55;;;55.42;;
42978;SDS011;28616;44.746;19.678;2022-12-13T04:37:06;112.10;;;58.92;;
42978;SDS011;28616;44.746;19.678;2022-12-13T04:39:33;120.30;;;59.13;;
42978;SDS011;28616;44.746;19.678;2022-12-13T04:41:59;121.13;;;59.45;;
42978;SDS011;28616;44.746;19.678;2022-12-13T04:44:25;110.63;;;56.40;;
42978;SDS011;28616;44.746;19.678;2022-12-13T04:46:51;104.40;;;50.00;;
42978;SDS011;28616;44.746;19.678;2022-12-13T04:49:17;103.50;;;52.38;;
42978;SDS011;28616;44.746;19.678;2022-12-13T04:51:42;111.15;;;58.67;;
42978;SDS011;28616;44.746;19.678;2022-12-13T04:54:08;134.90;;;69.50;;
42978;SDS011;28616;44.746;19.678;2022-12-13T04:56:34;106.63;;;53.10;;
42978;SDS011;28616;44.746;19.678;2022-12-13T04:58:59;86.15;;;41.35;;
42978;SDS011;28616;44.746;19.678;2022-12-13T05:01:25;85.80;;;42.13;;
42978;SDS011;28616;44.746;19.678;2022-12-13T05:03:51;96.20;;;51.25;;
42978;SDS011;28616;44.746;19.678;2022-12-13T05:06:17;92.00;;;46.05;;
42978;SDS011;28616;44.746;19.678;2022-12-13T05:08:42;89.45;;;44.80;;
42978;SDS011;28616;44.746;19.678;2022-12-13T05:11:09;136.82;;;61.78;;
42978;SDS011;28616;44.746;19.678;2022-12-13T05:13:35;111.47;;;53.25;;
42978;SDS011;28616;44.746;19.678;2022-12-13T05:16:03;180.05;;;85.93;;
42978;SDS011;28616;44.746;19.678;2022-12-13T05:18:31;205.30;;;88.70;;
42978;SDS011;28616;44.746;19.678;2022-12-13T05:21:02;138.43;;;61.55;;
42978;SDS011;28616;44.746;19.678;2022-12-13T05:23:32;167.45;;;73.70;;
42978;SDS011;28616;44.746;19.678;2022-12-13T05:25:58;149.52;;;70.28;;
42978;SDS011;28616;44.746;19.678;2022-12-13T05:28:24;247.20;;;102.70;;
42978;SDS011;28616;44.746;19.678;2022-12-13T05:30:53;248.32;;;105.20;;
42978;SDS011;28616;44.746;19.678;2022-12-13T05:33:23;182.38;;;77.28;;
42978;SDS011;28616;44.746;19.678;2022-12-13T05:35:50;330.35;;;152.88;;
42978;SDS011;28616;44.746;19.678;2022-12-13T05:38:16;263.58;;;117.78;;
42978;SDS011;28616;44.746;19.678;2022-12-13T05:40:42;156.13;;;74.65;;
42978;SDS011;28616;44.746;19.678;2022-12-13T05:43:09;129.52;;;63.20;;
42978;SDS011;28616;44.746;19.678;2022-12-13T05:45:36;131.73;;;64.72;;
42978;SDS011;28616;44.746;19.678;2022-12-13T05:48:02;108.18;;;51.05;;
42978;SDS011;28616;44.746;19.678;2022-12-13T05:50:28;130.77;;;61.85;;
42978;SDS011;28616;44.746;19.678;2022-12-13T05:52:54;130.95;;;60.47;;
42978;SDS011;28616;44.746;19.678;2022-12-13T05:55:20;98.20;;;48.60;;
42978;SDS011;28616;44.746;19.678;2022-12-13T05:57:46;154.05;;;70.15;;
42978;SDS011;28616;44.746;19.678;2022-12-13T06:00:11;114.10;;;52.55;;
42978;SDS011;28616;44.746;19.678;2022-12-13T06:02:38;167.88;;;72.55;;
42978;SDS011;28616;44.746;19.678;2022-12-13T06:05:05;229.52;;;93.97;;
42978;SDS011;28616;44.746;19.678;2022-12-13T06:07:32;136.93;;;62.70;;
42978;SDS011;28616;44.746;19.678;2022-12-13T06:09:58;163.75;;;72.25;;
42978;SDS011;28616;44.746;19.678;2022-12-13T06:12:23;217.57;;;88.78;;
42978;SDS011;28616;44.746;19.678;2022-12-13T06:14:49;132.65;;;59.72;;
42978;SDS011;28616;44.746;19.678;2022-12-13T06:17:15;89.15;;;41.28;;
42978;SDS011;28616;44.746;19.678;2022-12-13T06:19:40;81.25;;;39.58;;
42978;SDS011;28616;44.746;19.678;2022-12-13T06:22:06;113.35;;;54.90;;
42978;SDS011;28616;44.746;19.678;2022-12-13T06:24:32;125.55;;;59.22;;
42978;SDS011;28616;44.746;19.678;2022-12-13T06:26:58;116.20;;;52.67;;
42978;SDS011;28616;44.746;19.678;2022-12-13T06:29:24;137.10;;;58.88;;
42978;SDS011;28616;44.746;19.678;2022-12-13T06:31:51;207.18;;;79.50;;
42978;SDS011;28616;44.746;19.678;2022-12-13T06:34:19;124.40;;;55.38;;
42978;SDS011;28616;44.746;19.678;2022-12-13T06:36:44;229.65;;;95.55;;
42978;SDS011;28616;44.746;19.678;2022-12-13T06:39:10;227.93;;;92.72;;
42978;SDS011;28616;44.746;19.678;2022-12-13T06:41:36;363.52;;;170.70;;
42978;SDS011;28616;44.746;19.678;2022-12-13T06:44:02;379.13;;;165.68;;
42978;SDS011;28616;44.746;19.678;2022-12-13T06:46:27;227.50;;;95.97;;
42978;SDS011;28616;44.746;19.678;2022-12-13T06:48:53;176.02;;;76.95;;
42978;SDS011;28616;44.746;19.678;2022-12-13T06:51:19;165.55;;;74.70;;
42978;SDS011;28616;44.746;19.678;2022-12-13T06:53:45;159.18;;;74.40;;
42978;SDS011;28616;44.746;19.678;2022-12-13T06:56:12;161.30;;;73.28;;
42978;SDS011;28616;44.746;19.678;2022-12-13T06:58:39;218.20;;;93.10;;
42978;SDS011;28616;44.746;19.678;2022-12-13T07:01:07;308.15;;;128.95;;
42978;SDS011;28616;44.746;19.678;2022-12-13T07:03:37;249.40;;;116.63;;
42978;SDS011;28616;44.746;19.678;2022-12-13T07:06:14;253.90;;;120.10;;
42978;SDS011;28616;44.746;19.678;2022-12-13T07:09:03;286.73;;;134.52;;
42978;SDS011;28616;44.746;19.678;2022-12-13T07:11:29;283.30;;;137.80;;
42978;SDS011;28616;44.746;19.678;2022-12-13T07:13:57;236.90;;;117.55;;
42978;SDS011;28616;44.746;19.678;2022-12-13T07:16:24;294.83;;;134.93;;
42978;SDS011;28616;44.746;19.678;2022-12-13T07:18:54;191.88;;;89.45;;
42978;SDS011;28616;44.746;19.678;2022-12-13T07:21:21;260.17;;;113.55;;
42978;SDS011;28616;44.746;19.678;2022-12-13T07:23:47;253.98;;;108.35;;
42978;SDS011;28616;44.746;19.678;2022-12-13T07:26:17;248.57;;;110.30;;
42978;SDS011;28616;44.746;19.678;2022-12-13T07:28:44;209.07;;;89.68;;
42978;SDS011;28616;44.746;19.678;2022-12-13T07:31:10;249.73;;;104.82;;
42978;SDS011;28616;44.746;19.678;2022-12-13T07:33:36;267.52;;;109.82;;
42978;SDS011;28616;44.746;19.678;2022-12-13T07:36:04;242.48;;;102.32;;
42978;SDS011;28616;44.746;19.678;2022-12-13T07:38:34;262.13;;;112.60;;
42978;SDS011;28616;44.746;19.678;2022-12-13T07:41:00;259.25;;;105.32;;
42978;SDS011;28616;44.746;19.678;2022-12-13T07:43:26;285.67;;;126.07;;
42978;SDS011;28616;44.746;19.678;2022-12-13T07:45:54;331.23;;;146.20;;
42978;SDS011;28616;44.746;19.678;2022-12-13T07:48:23;237.70;;;114.55;;
42978;SDS011;28616;44.746;19.678;2022-12-13T07:50:50;224.10;;;105.97;;
42978;SDS011;28616;44.746;19.678;2022-12-13T07:53:16;234.13;;;108.75;;
42978;SDS011;28616;44.746;19.678;2022-12-13T07:55:42;211.43;;;98.22;;
42978;SDS011;28616;44.746;19.678;2022-12-13T07:58:12;217.30;;;101.57;;
42978;SDS011;28616;44.746;19.678;2022-12-13T08:00:40;262.05;;;117.47;;
42978;SDS011;28616;44.746;19.678;2022-12-13T08:03:07;273.23;;;125.35;;
42978;SDS011;28616;44.746;19.678;2022-12-13T08:05:33;324.00;;;146.73;;
42978;SDS011;28616;44.746;19.678;2022-12-13T08:08:01;277.92;;;129.02;;
42978;SDS011;28616;44.746;19.678;2022-12-13T08:10:28;318.55;;;149.35;;
42978;SDS011;28616;44.746;19.678;2022-12-13T08:12:55;371.52;;;190.68;;
42978;SDS011;28616;44.746;19.678;2022-12-13T08:15:21;276.52;;;129.48;;
42978;SDS011;28616;44.746;19.678;2022-12-13T08:17:47;170.02;;;79.20;;
42978;SDS011;28616;44.746;19.678;2022-12-13T08:20:13;152.57;;;70.00;;
42978;SDS011;28616;44.746;19.678;2022-12-13T08:22:39;168.43;;;79.05;;
42978;SDS011;28616;44.746;19.678;2022-12-13T08:25:06;181.95;;;85.07;;
42978;SDS011;28616;44.746;19.678;2022-12-13T08:27:32;198.82;;;90.88;;
42978;SDS011;28616;44.746;19.678;2022-12-13T08:29:58;192.98;;;87.80;;
42978;SDS011;28616;44.746;19.678;2022-12-13T08:32:24;220.88;;;101.22;;
42978;SDS011;28616;44.746;19.678;2022-12-13T08:34:49;221.73;;;101.88;;
42978;SDS011;28616;44.746;19.678;2022-12-13T08:37:15;211.35;;;98.03;;
42978;SDS011;28616;44.746;19.678;2022-12-13T08:39:41;208.38;;;96.90;;
42978;SDS011;28616;44.746;19.678;2022-12-13T08:42:12;196.45;;;91.95;;
42978;SDS011;28616;44.746;19.678;2022-12-13T08:44:39;180.67;;;79.97;;
42978;SDS011;28616;44.746;19.678;2022-12-13T08:47:05;329.67;;;176.10;;
42978;SDS011;28616;44.746;19.678;2022-12-13T08:49:31;255.35;;;130.43;;
42978;SDS011;28616;44.746;19.678;2022-12-13T08:51:56;208.93;;;95.63;;
42978;SDS011;28616;44.746;19.678;2022-12-13T08:54:22;182.38;;;84.88;;
42978;SDS011;28616;44.746;19.678;2022-12-13T08:56:48;210.85;;;109.82;;
42978;SDS011;28616;44.746;19.678;2022-12-13T08:59:14;164.50;;;81.68;;
42978;SDS011;28616;44.746;19.678;2022-12-13T09:01:40;155.95;;;69.25;;
42978;SDS011;28616;44.746;19.678;2022-12-13T09:04:05;152.15;;;73.53;;
42978;SDS011;28616;44.746;19.678;2022-12-13T09:06:31;161.57;;;75.55;;
42978;SDS011;28616;44.746;19.678;2022-12-13T09:08:57;223.57;;;94.60;;
42978;SDS011;28616;44.746;19.678;2022-12-13T09:11:23;266.23;;;110.22;;
42978;SDS011;28616;44.746;19.678;2022-12-13T09:13:48;222.50;;;101.35;;
42978;SDS011;28616;44.746;19.678;2022-12-13T09:16:15;303.10;;;130.95;;
42978;SDS011;28616;44.746;19.678;2022-12-13T09:18:43;186.32;;;83.53;;
42978;SDS011;28616;44.746;19.678;2022-12-13T09:21:11;153.50;;;71.22;;
42978;SDS011;28616;44.746;19.678;2022-12-13T09:23:38;164.27;;;75.53;;
42978;SDS011;28616;44.746;19.678;2022-12-13T09:26:12;160.40;;;73.10;;
42978;SDS011;28616;44.746;19.678;2022-12-13T09:28:39;181.93;;;85.82;;
42978;SDS011;28616;44.746;19.678;2022-12-13T09:31:06;159.93;;;76.55;;
42978;SDS011;28616;44.746;19.678;2022-12-13T09:33:33;158.93;;;75.03;;
42978;SDS011;28616;44.746;19.678;2022-12-13T09:36:02;151.93;;;72.47;;
42978;SDS011;28616;44.746;19.678;2022-12-13T09:43:48;161.88;;;82.57;;
42978;SDS011;28616;44.746;19.678;2022-12-13T09:46:25;183.60;;;93.50;;
42978;SDS011;28616;44.746;19.678;2022-12-13T09:48:56;416.85;;;164.90;;
42978;SDS011;28616;44.746;19.678;2022-12-13T09:51:23;205.55;;;95.55;;
42978;SDS011;28616;44.746;19.678;2022-12-13T09:53:50;188.73;;;90.43;;
42978;SDS011;28616;44.746;19.678;2022-12-13T09:56:19;160.40;;;76.07;;
42978;SDS011;28616;44.746;19.678;2022-12-13T09:58:50;140.68;;;69.22;;
42978;SDS011;28616;44.746;19.678;2022-12-13T10:01:18;136.77;;;64.28;;
42978;SDS011;28616;44.746;19.678;2022-12-13T10:03:45;110.65;;;52.65;;
42978;SDS011;28616;44.746;19.678;2022-12-13T10:08:44;117.57;;;55.58;;
42978;SDS011;28616;44.746;19.678;2022-12-13T10:11:13;113.93;;;54.75;;
42978;SDS011;28616;44.746;19.678;2022-12-13T10:16:17;109.55;;;56.15;;
42978;SDS011;28616;44.746;19.678;2022-12-13T10:18:47;116.03;;;56.10;;
42978;SDS011;28616;44.746;19.678;2022-12-13T10:21:17;121.00;;;62.05;;
42978;SDS011;28616;44.746;19.678;2022-12-13T10:23:49;120.30;;;61.67;;
42978;SDS011;28616;44.746;19.678;2022-12-13T10:26:15;93.30;;;49.67;;
42978;SDS011;28616;44.746;19.678;2022-12-13T10:28:41;148.27;;;73.72;;
42978;SDS011;28616;44.746;19.678;2022-12-13T10:31:07;166.82;;;73.60;;
42978;SDS011;28616;44.746;19.678;2022-12-13T10:33:39;121.85;;;60.22;;
42978;SDS011;28616;44.746;19.678;2022-12-13T10:36:27;156.52;;;83.90;;
42978;SDS011;28616;44.746;19.678;2022-12-13T10:38:58;91.63;;;49.22;;
42978;SDS011;28616;44.746;19.678;2022-12-13T10:46:36;72.55;;;38.47;;
42978;SDS011;28616;44.746;19.678;2022-12-13T10:50:08;69.82;;;39.88;;
42978;SDS011;28616;44.746;19.678;2022-12-13T10:52:29;81.25;;;42.97;;
42978;SDS011;28616;44.746;19.678;2022-12-13T10:55:03;81.82;;;42.38;;
42978;SDS011;28616;44.746;19.678;2022-12-13T10:57:31;52.47;;;29.10;;
42978;SDS011;28616;44.746;19.678;2022-12-13T10:59:57;48.22;;;26.75;;
42978;SDS011;28616;44.746;19.678;2022-12-13T11:08:22;57.72;;;29.23;;
42978;SDS011;28616;44.746;19.678;2022-12-13T11:11:01;53.70;;;28.23;;
42978;SDS011;28616;44.746;19.678;2022-12-13T11:16:01;51.15;;;30.67;;
42978;SDS011;28616;44.746;19.678;2022-12-13T11:18:29;78.30;;;39.47;;
42978;SDS011;28616;44.746;19.678;2022-12-13T11:21:01;90.95;;;45.10;;
42978;SDS011;28616;44.746;19.678;2022-12-13T11:23:32;90.45;;;41.28;;
42978;SDS011;28616;44.746;19.678;2022-12-13T11:26:04;109.93;;;49.30;;
42978;SDS011;28616;44.746;19.678;2022-12-13T11:37:03;120.32;;;57.90;;
42978;SDS011;28616;44.746;19.678;2022-12-13T11:39:40;186.75;;;86.78;;
42978;SDS011;28616;44.746;19.678;2022-12-13T11:47:14;453.65;;;230.02;;
42978;SDS011;28616;44.746;19.678;2022-12-13T11:49:45;197.32;;;95.80;;
42978;SDS011;28616;44.746;19.678;2022-12-13T11:52:14;177.27;;;80.47;;
42978;SDS011;28616;44.746;19.678;2022-12-13T11:55:04;145.57;;;78.60;;
42978;SDS011;28616;44.746;19.678;2022-12-13T11:58:03;148.07;;;78.55;;
42978;SDS011;28616;44.746;19.678;2022-12-13T12:00:39;142.82;;;72.30;;
42978;SDS011;28616;44.746;19.678;2022-12-13T12:03:19;98.72;;;46.50;;
42978;SDS011;28616;44.746;19.678;2022-12-13T12:06:21;79.95;;;40.90;;
42978;SDS011;28616;44.746;19.678;2022-12-13T12:08:58;100.13;;;50.47;;
42978;SDS011;28616;44.746;19.678;2022-12-13T12:11:27;76.35;;;40.15;;
42978;SDS011;28616;44.746;19.678;2022-12-13T12:16:52;88.60;;;37.40;;
42978;SDS011;28616;44.746;19.678;2022-12-13T12:19:26;82.78;;;38.53;;
42978;SDS011;28616;44.746;19.678;2022-12-13T12:27:36;117.25;;;51.22;;
42978;SDS011;28616;44.746;19.678;2022-12-13T12:43:09;118.15;;;55.38;;
42978;SDS011;28616;44.746;19.678;2022-12-13T12:48:27;124.60;;;56.22;;
42978;SDS011;28616;44.746;19.678;2022-12-13T12:53:44;107.25;;;50.28;;
42978;SDS011;28616;44.746;19.678;2022-12-13T13:04:23;125.40;;;59.05;;
42978;SDS011;28616;44.746;19.678;2022-12-13T13:06:59;117.80;;;53.83;;
42978;SDS011;28616;44.746;19.678;2022-12-13T13:09:32;142.48;;;63.58;;
42978;SDS011;28616;44.746;19.678;2022-12-13T13:12:01;142.02;;;59.30;;
42978;SDS011;28616;44.746;19.678;2022-12-13T13:14:30;139.68;;;65.93;;
42978;SDS011;28616;44.746;19.678;2022-12-13T13:16:59;152.07;;;68.72;;
42978;SDS011;28616;44.746;19.678;2022-12-13T13:19:49;164.20;;;73.45;;
42978;SDS011;28616;44.746;19.678;2022-12-13T13:22:40;123.60;;;58.67;;
42978;SDS011;28616;44.746;19.678;2022-12-13T13:27:35;175.85;;;79.80;;
42978;SDS011;28616;44.746;19.678;2022-12-13T13:30:06;153.40;;;69.53;;
42978;SDS011;28616;44.746;19.678;2022-12-13T13:32:45;198.52;;;98.15;;
42978;SDS011;28616;44.746;19.678;2022-12-13T13:37:56;163.88;;;82.22;;
42978;SDS011;28616;44.746;19.678;2022-12-13T13:40:30;188.38;;;94.97;;
42978;SDS011;28616;44.746;19.678;2022-12-13T14:08:27;219.35;;;96.05;;
42978;SDS011;28616;44.746;19.678;2022-12-13T14:11:20;188.10;;;84.35;;
42978;SDS011;28616;44.746;19.678;2022-12-13T14:14:37;201.98;;;88.43;;
42978;SDS011;28616;44.746;19.678;2022-12-13T14:22:31;193.15;;;85.38;;
42978;SDS011;28616;44.746;19.678;2022-12-13T14:27:46;165.60;;;75.35;;
42978;SDS011;28616;44.746;19.678;2022-12-13T14:30:25;232.68;;;108.40;;
42978;SDS011;28616;44.746;19.678;2022-12-13T14:32:51;178.93;;;87.47;;
42978;SDS011;28616;44.746;19.678;2022-12-13T14:35:30;171.25;;;77.75;;
42978;SDS011;28616;44.746;19.678;2022-12-13T14:38:16;185.15;;;88.13;;
42978;SDS011;28616;44.746;19.678;2022-12-13T14:40:47;246.00;;;105.18;;
42978;SDS011;28616;44.746;19.678;2022-12-13T14:43:22;153.07;;;72.35;;
42978;SDS011;28616;44.746;19.678;2022-12-13T14:45:54;287.48;;;134.68;;
42978;SDS011;28616;44.746;19.678;2022-12-13T14:48:22;208.25;;;104.03;;
42978;SDS011;28616;44.746;19.678;2022-12-13T14:50:49;171.65;;;83.45;;
42978;SDS011;28616;44.746;19.678;2022-12-13T14:53:21;205.73;;;100.65;;
42978;SDS011;28616;44.746;19.678;2022-12-13T14:58:30;205.63;;;94.60;;
42978;SDS011;28616;44.746;19.678;2022-12-13T15:00:56;209.23;;;94.70;;
42978;SDS011;28616;44.746;19.678;2022-12-13T15:03:25;202.93;;;85.00;;
42978;SDS011;28616;44.746;19.678;2022-12-13T15:05:53;184.43;;;73.53;;
42978;SDS011;28616;44.746;19.678;2022-12-13T15:08:21;173.68;;;77.72;;
42978;SDS011;28616;44.746;19.678;2022-12-13T15:15:59;137.55;;;61.97;;
42978;SDS011;28616;44.746;19.678;2022-12-13T15:18:28;170.88;;;75.75;;
42978;SDS011;28616;44.746;19.678;2022-12-13T15:20:55;144.13;;;67.00;;
42978;SDS011;28616;44.746;19.678;2022-12-13T15:26:06;156.77;;;62.00;;
42978;SDS011;28616;44.746;19.678;2022-12-13T15:28:36;185.52;;;78.10;;
42978;SDS011;28616;44.746;19.678;2022-12-13T15:31:06;147.10;;;65.53;;
42978;SDS011;28616;44.746;19.678;2022-12-13T15:33:32;141.50;;;66.30;;
42978;SDS011;28616;44.746;19.678;2022-12-13T15:41:20;108.45;;;49.42;;
42978;SDS011;28616;44.746;19.678;2022-12-13T15:43:55;69.40;;;34.08;;
42978;SDS011;28616;44.746;19.678;2022-12-13T15:46:25;81.47;;;38.15;;
42978;SDS011;28616;44.746;19.678;2022-12-13T15:48:55;84.55;;;38.58;;
42978;SDS011;28616;44.746;19.678;2022-12-13T15:51:23;112.10;;;49.60;;
42978;SDS011;28616;44.746;19.678;2022-12-13T15:59:33;152.90;;;66.93;;
42978;SDS011;28616;44.746;19.678;2022-12-13T16:02:00;260.08;;;105.13;;
42978;SDS011;28616;44.746;19.678;2022-12-13T16:04:28;281.98;;;106.00;;
42978;SDS011;28616;44.746;19.678;2022-12-13T16:06:57;354.58;;;117.68;;
42978;SDS011;28616;44.746;19.678;2022-12-13T16:09:25;215.45;;;85.07;;
42978;SDS011;28616;44.746;19.678;2022-12-13T16:12:01;139.98;;;62.15;;
42978;SDS011;28616;44.746;19.678;2022-12-13T16:16:57;166.10;;;71.50;;
42978;SDS011;28616;44.746;19.678;2022-12-13T16:19:26;238.68;;;82.45;;
42978;SDS011;28616;44.746;19.678;2022-12-13T16:21:52;240.30;;;86.75;;
42978;SDS011;28616;44.746;19.678;2022-12-13T16:24:17;209.93;;;86.55;;
42978;SDS011;28616;44.746;19.678;2022-12-13T16:26:44;239.20;;;92.43;;
42978;SDS011;28616;44.746;19.678;2022-12-13T16:29:12;136.43;;;57.10;;
42978;SDS011;28616;44.746;19.678;2022-12-13T16:31:43;306.00;;;118.72;;
42978;SDS011;28616;44.746;19.678;2022-12-13T16:34:10;155.60;;;66.25;;
42978;SDS011;28616;44.746;19.678;2022-12-13T16:36:36;215.30;;;104.13;;
42978;SDS011;28616;44.746;19.678;2022-12-13T16:39:02;186.40;;;85.00;;
42978;SDS011;28616;44.746;19.678;2022-12-13T16:41:29;218.52;;;94.95;;
42978;SDS011;28616;44.746;19.678;2022-12-13T16:44:00;199.77;;;92.03;;
42978;SDS011;28616;44.746;19.678;2022-12-13T16:46:27;186.80;;;77.00;;
42978;SDS011;28616;44.746;19.678;2022-12-13T16:48:53;241.10;;;108.35;;
42978;SDS011;28616;44.746;19.678;2022-12-13T16:51:20;228.38;;;103.78;;
42978;SDS011;28616;44.746;19.678;2022-12-13T16:53:46;205.98;;;93.85;;
42978;SDS011;28616;44.746;19.678;2022-12-13T16:56:12;180.50;;;85.38;;
42978;SDS011;28616;44.746;19.678;2022-12-13T16:58:41;151.10;;;68.47;;
42978;SDS011;28616;44.746;19.678;2022-12-13T17:01:14;195.52;;;86.93;;
42978;SDS011;28616;44.746;19.678;2022-12-13T17:03:43;155.82;;;65.15;;